Aérodrome :
LOGIN :

S'inscrire | Disclaimer

   EN    FR    IT 

 










Légende :    VFR   VFR Marginal   IFR   IFR Intensif   IFR Très Intensif
Visi : 
Plafond : 
>= 8 km
>= 3000ft
5 à 8 km
1000 à 3000 ft
1500m à 5 km
500 à 1000 ft
800 à 1500m
200 à 500 ft
< 800m
< 200 ft
Symboles :   Orages  Brouillard  Fortes neiges  Fortes précipitations  Vent > 20 kt
SIGMETs :   Divers  Orages  Givrage  Turbulence  Onde Orograph.  Cendres Volcan.






- Altitude de l'aérodrome : 1411 ft
- Code IATA : ZHI


LSZG - Grenchen

DERNIER METAR :
  • 181750Z 30003KT CAVOK 28/14 Q1012

METARs EXPIRÉS :
  • 181720Z 28003KT 260V320 CAVOK 28/13 Q1012
  • 181650Z 28003KT CAVOK 28/16 Q1012
  • 181620Z 25005KT 210V280 CAVOK 29/13 Q1013
  • 181550Z 24005KT 210V270 CAVOK 30/13 Q1013
  • 181520Z 24005KT 190V280 CAVOK 29/13 Q1013
  • 181450Z AUTO 24007KT 200V270 CAVOK 29/13 Q1013
  • 181420Z 22009KT 170V250 9999 FEW050 30/14 Q1014
  • 181350Z 22008KT 190V260 9999 FEW055 29/14 Q1014
  • 181320Z 23008KT 9999 FEW060 28/14 Q1014

TAF TAF LSZG
Valide du 18 à 15h jusqu'au 19 à 00h UTC


181425Z 1815/1824 23008KT 9999 FEW060
BECMG 1817/1820 CAVOK
ATIS : +41 32 396 96 33



MET'MAP, la Météo Aéronautique d'un coup d'oeil ! - Copyright ORBIFLY Décembre 2007 - Disclaimer

ORBIFLY MET'MAP TEAM :

Programmation & Développement : Alexandra Zaïnal
Sur une idée originale de : Baudouin d'Aumeries
Soutien technique & logistique : Manuel Goepfert
Assistance : Marc-Olivier Méhu




SOURCES & CREDITS :

   NOAA